Magic Sun — D54895U — position and weather

sailwx.info

Track history (hours):
 
Tides and Currents Weather Stations Pressure Air Temp Water Temp Dewpoint Dewpoint Depression Visibility Wind Speed Wind Dir Waves Ship Positions

Magic Sun

Last reported at 2016-May-16 10:33 UTC. Time now 2016-May-30 14:29 UTC.
Position N 49°29' E 000°06'.
Warning: this ship's position is 14 days out of date.

Length 10 m.

Type: Sailing vessel. MMSI: 227018810.

Date/timePositionNaut miles runAvg speedWind from/ knotsBaromVisibWave heightAir tempDewpointWater temp
2016-May-16 10:33N 49°29' E 000°06'0 0.0
2016-May-16 09:31N 49°29' E 000°06'0 0.0
2016-May-16 08:33N 49°29' E 000°06'0 0.1
2016-May-16 07:33N 49°29' E 000°06'0 0.0
2016-May-16 06:33N 49°29' E 000°06'0 0.0
2016-May-16 05:33N 49°29' E 000°06'0 0.0
2016-May-16 04:33N 49°29' E 000°06'0 0.0
2016-May-16 03:33N 49°29' E 000°06'0 0.0
2016-May-16 02:33N 49°29' E 000°06'0 0.0
2016-May-16 01:33N 49°29' E 000°06'0 0.0
2016-May-16 00:33N 49°29' E 000°06'0 0.0
2016-May-15 23:33N 49°29' E 000°06'0 0.0
2016-May-15 22:33N 49°29' E 000°06'0 0.0
2016-May-15 21:33N 49°29' E 000°06'0 0.0
2016-May-15 20:33N 49°29' E 000°06'0 0.3
2016-May-15 19:33N 49°29' E 000°05'5 5.2
2016-May-15 18:33N 49°31' W 000°02'7 6.8
2016-May-15 17:33N 49°32' W 000°12'7 6.8
2016-May-15 16:33N 49°33' W 000°23'  
2016-May-08 14:24N 50°10' W 003°40'6 7.4
2016-May-08 13:33N 50°12' W 003°30'6 6.4
2016-May-08 12:33N 50°16' W 003°22'6 6.3
2016-May-08 11:33N 50°19' W 003°14'7 6.6
2016-May-08 10:33N 50°23' W 003°05'7 6.4
2016-May-08 09:30N 50°27' W 002°57'  
Track history (hours):
 
Tides and Currents Weather Stations Pressure Air Temp Water Temp Dewpoint Dewpoint Depression Visibility Wind Speed Wind Dir Waves Ship Positions

Magic Sun

Last reported at 2016-May-16 10:33 UTC. Time now 2016-May-30 14:29 UTC.
Position N 49°29' E 000°06'.
Warning: this ship's position is 14 days out of date.

Length 10 m.

Type: Sailing vessel. MMSI: 227018810.

Date/timePositionNaut miles runAvg speedWind from/ knotsBaromVisibWave heightAir tempDewpointWater temp
2016-May-16 10:33N 49°29' E 000°06'0 0.0
2016-May-16 09:31N 49°29' E 000°06'0 0.0
2016-May-16 08:33N 49°29' E 000°06'0 0.1
2016-May-16 07:33N 49°29' E 000°06'0 0.0
2016-May-16 06:33N 49°29' E 000°06'0 0.0
2016-May-16 05:33N 49°29' E 000°06'0 0.0
2016-May-16 04:33N 49°29' E 000°06'0 0.0
2016-May-16 03:33N 49°29' E 000°06'0 0.0
2016-May-16 02:33N 49°29' E 000°06'0 0.0
2016-May-16 01:33N 49°29' E 000°06'0 0.0
2016-May-16 00:33N 49°29' E 000°06'0 0.0
2016-May-15 23:33N 49°29' E 000°06'0 0.0
2016-May-15 22:33N 49°29' E 000°06'0 0.0
2016-May-15 21:33N 49°29' E 000°06'0 0.0
2016-May-15 20:33N 49°29' E 000°06'0 0.3
2016-May-15 19:33N 49°29' E 000°05'5 5.2
2016-May-15 18:33N 49°31' W 000°02'7 6.8
2016-May-15 17:33N 49°32' W 000°12'7 6.8
2016-May-15 16:33N 49°33' W 000°23'  
2016-May-08 14:24N 50°10' W 003°40'6 7.4
2016-May-08 13:33N 50°12' W 003°30'6 6.4
2016-May-08 12:33N 50°16' W 003°22'6 6.3
2016-May-08 11:33N 50°19' W 003°14'7 6.6
2016-May-08 10:33N 50°23' W 003°05'7 6.4
2016-May-08 09:30N 50°27' W 002°57'  

Dump ship's entire track history